sensor_id;sensor_type;location;lat;lon;timestamp;P1;durP1;ratioP1;P2;durP2;ratioP2
50649;SDS011;36621;60.058;30.346;2023-04-28T00:03:54;1.50;;;1.27;;
50649;SDS011;36621;60.058;30.346;2023-04-28T00:11:28;3.17;;;2.88;;
50649;SDS011;36621;60.058;30.346;2023-04-28T00:19:00;1.55;;;1.45;;
50649;SDS011;36621;60.058;30.346;2023-04-28T00:26:32;2.80;;;1.08;;
50649;SDS011;36621;60.058;30.346;2023-04-28T00:34:05;1.77;;;1.40;;
50649;SDS011;36621;60.058;30.346;2023-04-28T00:41:37;1.30;;;1.15;;
50649;SDS011;36621;60.058;30.346;2023-04-28T00:49:09;1.30;;;1.20;;
50649;SDS011;36621;60.058;30.346;2023-04-28T00:56:42;2.28;;;1.30;;
50649;SDS011;36621;60.058;30.346;2023-04-28T01:04:15;1.15;;;1.00;;
50649;SDS011;36621;60.058;30.346;2023-04-28T01:11:51;1.20;;;1.10;;
50649;SDS011;36621;60.058;30.346;2023-04-28T01:19:37;2.35;;;1.33;;
50649;SDS011;36621;60.058;30.346;2023-04-28T01:27:10;1.45;;;1.30;;
50649;SDS011;36621;60.058;30.346;2023-04-28T01:34:44;3.00;;;1.75;;
50649;SDS011;36621;60.058;30.346;2023-04-28T01:42:18;1.83;;;1.40;;
50649;SDS011;36621;60.058;30.346;2023-04-28T01:49:50;2.00;;;1.60;;
50649;SDS011;36621;60.058;30.346;2023-04-28T01:57:22;3.75;;;1.60;;
50649;SDS011;36621;60.058;30.346;2023-04-28T02:04:56;1.48;;;1.35;;
50649;SDS011;36621;60.058;30.346;2023-04-28T02:12:29;2.05;;;1.58;;
50649;SDS011;36621;60.058;30.346;2023-04-28T02:20:01;2.22;;;1.73;;
50649;SDS011;36621;60.058;30.346;2023-04-28T02:27:35;2.17;;;1.65;;
50649;SDS011;36621;60.058;30.346;2023-04-28T02:35:07;2.03;;;1.70;;
50649;SDS011;36621;60.058;30.346;2023-04-28T02:42:40;3.30;;;2.35;;
50649;SDS011;36621;60.058;30.346;2023-04-28T02:50:12;2.35;;;1.80;;
50649;SDS011;36621;60.058;30.346;2023-04-28T02:57:44;2.03;;;1.80;;
50649;SDS011;36621;60.058;30.346;2023-04-28T03:05:16;2.20;;;1.98;;
50649;SDS011;36621;60.058;30.346;2023-04-28T03:12:49;2.83;;;2.33;;
50649;SDS011;36621;60.058;30.346;2023-04-28T03:20:22;2.25;;;1.95;;
50649;SDS011;36621;60.058;30.346;2023-04-28T03:27:55;2.83;;;2.20;;
50649;SDS011;36621;60.058;30.346;2023-04-28T03:35:27;3.40;;;1.80;;
50649;SDS011;36621;60.058;30.346;2023-04-28T03:43:01;2.03;;;1.83;;
50649;SDS011;36621;60.058;30.346;2023-04-28T03:50:38;2.60;;;2.03;;
50649;SDS011;36621;60.058;30.346;2023-04-28T03:58:14;2.42;;;2.03;;
50649;SDS011;36621;60.058;30.346;2023-04-28T04:05:46;2.17;;;1.98;;
50649;SDS011;36621;60.058;30.346;2023-04-28T04:13:19;3.50;;;1.80;;
50649;SDS011;36621;60.058;30.346;2023-04-28T04:20:51;3.38;;;1.98;;
50649;SDS011;36621;60.058;30.346;2023-04-28T04:28:27;3.55;;;2.05;;
50649;SDS011;36621;60.058;30.346;2023-04-28T04:35:59;3.20;;;2.10;;
50649;SDS011;36621;60.058;30.346;2023-04-28T04:43:32;2.53;;;1.90;;
50649;SDS011;36621;60.058;30.346;2023-04-28T04:51:05;3.72;;;2.20;;
50649;SDS011;36621;60.058;30.346;2023-04-28T04:58:41;2.75;;;2.20;;
50649;SDS011;36621;60.058;30.346;2023-04-28T16:58:50;5.90;;;1.75;;
50649;SDS011;36621;60.058;30.346;2023-04-28T17:06:22;9.10;;;1.92;;
50649;SDS011;36621;60.058;30.346;2023-04-28T17:13:55;13.02;;;3.35;;
50649;SDS011;36621;60.058;30.346;2023-04-28T17:21:27;16.77;;;2.40;;
50649;SDS011;36621;60.058;30.346;2023-04-28T17:28:59;8.48;;;2.30;;
50649;SDS011;36621;60.058;30.346;2023-04-28T17:36:32;15.30;;;3.22;;
50649;SDS011;36621;60.058;30.346;2023-04-28T17:44:05;5.88;;;2.33;;
50649;SDS011;36621;60.058;30.346;2023-04-28T17:51:37;9.50;;;1.98;;
50649;SDS011;36621;60.058;30.346;2023-04-28T17:59:09;9.35;;;3.25;;
50649;SDS011;36621;60.058;30.346;2023-04-28T18:06:44;8.70;;;2.40;;
50649;SDS011;36621;60.058;30.346;2023-04-28T18:14:17;17.63;;;4.80;;
50649;SDS011;36621;60.058;30.346;2023-04-28T18:21:49;13.25;;;2.47;;
50649;SDS011;36621;60.058;30.346;2023-04-28T18:29:22;10.80;;;2.42;;
50649;SDS011;36621;60.058;30.346;2023-04-28T18:36:54;14.68;;;2.80;;
50649;SDS011;36621;60.058;30.346;2023-04-28T18:44:26;35.03;;;4.47;;
50649;SDS011;36621;60.058;30.346;2023-04-28T18:51:58;12.02;;;2.55;;
50649;SDS011;36621;60.058;30.346;2023-04-28T18:59:34;18.50;;;2.80;;
50649;SDS011;36621;60.058;30.346;2023-04-28T19:07:06;7.20;;;2.88;;
50649;SDS011;36621;60.058;30.346;2023-04-28T19:14:39;19.02;;;3.35;;
50649;SDS011;36621;60.058;30.346;2023-04-28T19:22:27;34.10;;;6.07;;
50649;SDS011;36621;60.058;30.346;2023-04-28T19:30:01;21.08;;;5.80;;
50649;SDS011;36621;60.058;30.346;2023-04-28T19:37:35;12.82;;;2.50;;
50649;SDS011;36621;60.058;30.346;2023-04-28T19:45:08;7.88;;;2.90;;
50649;SDS011;36621;60.058;30.346;2023-04-28T19:52:41;8.50;;;3.00;;
50649;SDS011;36621;60.058;30.346;2023-04-28T20:00:14;8.35;;;1.95;;
50649;SDS011;36621;60.058;30.346;2023-04-28T20:07:46;7.30;;;1.90;;
50649;SDS011;36621;60.058;30.346;2023-04-28T20:15:19;7.85;;;2.05;;
50649;SDS011;36621;60.058;30.346;2023-04-28T20:22:52;11.65;;;2.03;;
50649;SDS011;36621;60.058;30.346;2023-04-28T20:30:25;6.72;;;2.30;;
50649;SDS011;36621;60.058;30.346;2023-04-28T20:37:57;10.70;;;2.42;;
50649;SDS011;36621;60.058;30.346;2023-04-28T20:45:30;9.43;;;2.20;;
50649;SDS011;36621;60.058;30.346;2023-04-28T20:53:02;7.53;;;1.90;;
50649;SDS011;36621;60.058;30.346;2023-04-28T21:00:35;10.27;;;2.40;;
50649;SDS011;36621;60.058;30.346;2023-04-28T21:08:10;6.40;;;2.35;;
50649;SDS011;36621;60.058;30.346;2023-04-28T21:15:43;9.82;;;2.58;;
50649;SDS011;36621;60.058;30.346;2023-04-28T21:23:15;8.13;;;2.10;;
50649;SDS011;36621;60.058;30.346;2023-04-28T21:30:50;15.70;;;2.33;;
50649;SDS011;36621;60.058;30.346;2023-04-28T21:38:22;5.68;;;1.90;;
50649;SDS011;36621;60.058;30.346;2023-04-28T21:45:55;12.90;;;2.60;;
50649;SDS011;36621;60.058;30.346;2023-04-28T21:53:27;10.63;;;2.50;;
50649;SDS011;36621;60.058;30.346;2023-04-28T22:01:00;10.55;;;2.97;;
50649;SDS011;36621;60.058;30.346;2023-04-28T22:08:33;24.08;;;3.88;;
50649;SDS011;36621;60.058;30.346;2023-04-28T22:16:06;13.63;;;5.35;;
50649;SDS011;36621;60.058;30.346;2023-04-28T22:23:38;25.50;;;6.30;;
50649;SDS011;36621;60.058;30.346;2023-04-28T22:31:11;21.73;;;7.22;;
50649;SDS011;36621;60.058;30.346;2023-04-28T22:38:44;11.57;;;5.70;;
50649;SDS011;36621;60.058;30.346;2023-04-28T22:46:17;10.85;;;4.45;;
50649;SDS011;36621;60.058;30.346;2023-04-28T22:53:49;4.63;;;2.75;;
50649;SDS011;36621;60.058;30.346;2023-04-28T23:01:21;6.65;;;2.53;;
50649;SDS011;36621;60.058;30.346;2023-04-28T23:08:54;7.32;;;2.28;;
50649;SDS011;36621;60.058;30.346;2023-04-28T23:16:27;6.18;;;2.30;;
50649;SDS011;36621;60.058;30.346;2023-04-28T23:23:59;6.18;;;2.58;;
50649;SDS011;36621;60.058;30.346;2023-04-28T23:31:31;5.30;;;2.50;;
50649;SDS011;36621;60.058;30.346;2023-04-28T23:39:09;4.23;;;2.10;;
50649;SDS011;36621;60.058;30.346;2023-04-28T23:46:41;15.52;;;2.47;;
50649;SDS011;36621;60.058;30.346;2023-04-28T23:54:14;3.97;;;2.63;;
